Time;durP1;ratioP1;P1;durP2;ratioP2;P2;SDS_P1;SDS_P2;PMS_P1;PMS_P2;Temp;Humidity;BMP_temperature;BMP_pressure;BME280_temperature;BME280_humidity;BME280_pressure;Samples;Min_cycle;Max_cycle;Signal;HPM_P1;HPM_P2
2021/04/22 00:00:17;;;;;;;4.95;1.42;;;18.50;52.50;;;;;;6213920;23;20012;-78
2021/04/22 00:02:43;;;;;;;4.55;1.40;;;18.50;52.40;;;;;;6212105;23;20000;-77
2021/04/22 00:05:41;;;;;;;6.85;1.70;;;18.50;52.50;;;;;;6213638;23;20008;-76
2021/04/22 00:08:09;;;;;;;5.90;1.67;;;18.50;53.00;;;;;;6213658;23;19997;-74
2021/04/22 00:10:45;;;;;;;4.20;1.27;;;18.50;52.50;;;;;;6213122;23;20051;-79
2021/04/22 00:13:13;;;;;;;3.95;1.52;;;18.40;52.40;;;;;;6212850;23;20047;-76
2021/04/22 00:15:39;;;;;;;4.38;1.20;;;18.40;52.40;;;;;;6212118;23;20008;-76
2021/04/22 00:18:07;;;;;;;5.43;1.35;;;18.40;52.30;;;;;;6213339;23;20024;-77
2021/04/22 00:20:35;;;;;;;5.57;1.30;;;18.40;52.30;;;;;;6213641;23;20015;-77
2021/04/22 00:23:01;;;;;;;6.18;1.48;;;18.40;52.30;;;;;;6213895;23;20047;-74
2021/04/22 00:25:26;;;;;;;2.85;1.10;;;18.40;52.20;;;;;;6211459;23;20004;-78
2021/04/22 00:27:53;;;;;;;4.50;1.38;;;18.40;52.20;;;;;;6213746;23;20000;-77
2021/04/22 00:30:19;;;;;;;4.15;1.15;;;18.30;52.10;;;;;;6212408;23;20007;-75
2021/04/22 00:32:45;;;;;;;3.25;1.15;;;18.30;51.80;;;;;;6214255;23;20008;-79
2021/04/22 00:35:12;;;;;;;3.05;0.90;;;18.20;51.80;;;;;;6213720;23;20005;-76
2021/04/22 00:37:38;;;;;;;3.65;1.40;;;18.20;51.80;;;;;;6213626;23;20001;-78
2021/04/22 00:40:24;;;;;;;4.15;1.45;;;18.20;52.40;;;;;;6213830;23;20008;-78
2021/04/22 00:42:50;;;;;;;4.20;1.27;;;18.20;51.70;;;;;;6213594;23;20008;-79
2021/04/22 00:45:17;;;;;;;3.00;0.95;;;18.20;51.80;;;;;;6213471;23;20009;-73
2021/04/22 00:47:43;;;;;;;4.40;1.30;;;18.20;51.70;;;;;;6213052;23;20005;-77
2021/04/22 00:50:24;;;;;;;4.32;1.50;;;18.10;51.60;;;;;;6213866;23;20002;-77
2021/04/22 00:52:54;;;;;;;4.80;1.30;;;18.10;51.60;;;;;;6213449;23;20008;-77
2021/04/22 00:55:20;;;;;;;3.17;1.10;;;18.10;52.10;;;;;;6213564;23;19996;-77
2021/04/22 00:57:46;;;;;;;5.00;1.20;;;18.10;51.70;;;;;;6213224;23;20009;-78
2021/04/22 01:00:14;;;;;;;4.60;1.02;;;18.10;51.70;;;;;;6213239;23;20020;-78
2021/04/22 01:02:40;;;;;;;4.72;1.10;;;18.10;51.70;;;;;;6212375;23;20008;-72
2021/04/22 01:05:21;;;;;;;3.72;0.88;;;18.10;51.60;;;;;;6213208;23;20008;-73
2021/04/22 01:07:47;;;;;;;5.20;1.08;;;18.00;51.60;;;;;;6211842;23;20004;-74
2021/04/22 01:10:15;;;;;;;5.15;1.20;;;18.00;51.60;;;;;;6211264;23;20009;-76
2021/04/22 01:12:41;;;;;;;5.05;1.10;;;18.00;51.60;;;;;;6212732;23;20004;-70
2021/04/22 01:15:09;;;;;;;3.40;1.05;;;18.00;51.60;;;;;;6213234;23;20393;-71
2021/04/22 01:17:38;;;;;;;4.32;1.10;;;18.00;51.60;;;;;;6212947;23;20035;-75
2021/04/22 01:20:22;;;;;;;3.58;1.27;;;18.00;51.50;;;;;;6213643;23;20391;-77
2021/04/22 01:22:49;;;;;;;3.63;1.08;;;18.00;51.50;;;;;;6213380;23;20078;-75
2021/04/22 01:25:17;;;;;;;3.28;1.30;;;18.00;51.50;;;;;;6213561;23;19996;-78
2021/04/22 01:27:44;;;;;;;4.20;1.30;;;17.90;51.40;;;;;;6212912;23;20055;-76
2021/04/22 01:30:19;;;;;;;5.03;1.25;;;17.90;51.40;;;;;;6213612;23;20019;-76
2021/04/22 01:32:46;;;;;;;5.50;1.27;;;17.90;51.30;;;;;;6210461;23;20362;-79
2021/04/22 01:35:18;;;;;;;4.70;1.35;;;17.90;51.40;;;;;;6212104;23;20008;-75
2021/04/22 01:37:44;;;;;;;2.67;1.27;;;17.90;51.40;;;;;;6213586;23;20012;-78
2021/04/22 01:40:11;;;;;;;5.88;1.20;;;17.80;51.30;;;;;;6213219;23;20351;-78
2021/04/22 01:42:37;;;;;;;3.95;0.98;;;17.80;51.20;;;;;;6209355;23;20001;-78
2021/04/22 01:45:04;;;;;;;4.32;1.20;;;17.80;51.00;;;;;;6215424;23;20051;-78
2021/04/22 01:47:30;;;;;;;7.07;1.88;;;17.80;51.20;;;;;;6213738;23;20019;-79
2021/04/22 01:49:55;;;;;;;6.07;1.65;;;17.80;51.20;;;;;;6215018;23;20072;-78
2021/04/22 01:52:21;;;;;;;4.10;1.20;;;17.80;51.00;;;;;;6214938;23;20007;-77
2021/04/22 01:54:46;;;;;;;3.97;1.23;;;17.80;51.00;;;;;;6215387;23;20004;-75
2021/04/22 01:57:12;;;;;;;4.22;1.35;;;17.80;50.90;;;;;;6214760;23;20001;-69
2021/04/22 01:59:38;;;;;;;6.15;1.27;;;17.70;50.80;;;;;;6213426;23;20016;-73
2021/04/22 02:02:04;;;;;;;6.57;1.67;;;17.80;51.50;;;;;;6215062;23;20004;-72
2021/04/22 02:04:30;;;;;;;4.22;1.30;;;17.70;51.00;;;;;;6214790;23;20027;-74
2021/04/22 02:06:56;;;;;;;4.28;1.20;;;17.70;51.00;;;;;;6214781;23;20009;-76
2021/04/22 02:09:21;;;;;;;3.22;1.00;;;17.70;51.00;;;;;;6215116;23;20080;-79
2021/04/22 02:11:47;;;;;;;4.82;1.50;;;17.70;51.00;;;;;;6213649;23;19997;-78
2021/04/22 02:14:12;;;;;;;6.32;1.95;;;17.70;51.00;;;;;;6213459;23;20015;-70
2021/04/22 02:16:39;;;;;;;4.97;1.05;;;17.70;51.00;;;;;;6214606;23;20325;-73
2021/04/22 02:19:05;;;;;;;4.72;1.33;;;17.60;51.00;;;;;;6215679;23;20059;-74
2021/04/22 02:21:31;;;;;;;4.45;1.50;;;17.70;51.00;;;;;;6214546;23;20380;-70
2021/04/22 02:23:57;;;;;;;3.55;1.20;;;17.60;51.00;;;;;;6214940;23;20456;-73
2021/04/22 02:26:22;;;;;;;4.22;1.10;;;17.60;51.00;;;;;;6213741;23;20000;-71
2021/04/22 02:28:48;;;;;;;6.20;1.40;;;17.60;51.00;;;;;;6214372;23;20071;-71
2021/04/22 02:31:14;;;;;;;4.32;1.20;;;17.60;51.50;;;;;;6214484;23;20349;-75
2021/04/22 02:33:40;;;;;;;3.85;1.20;;;17.60;50.90;;;;;;6214720;23;20047;-70
2021/04/22 02:36:06;;;;;;;4.63;1.52;;;17.60;51.00;;;;;;6212878;23;20015;-75
2021/04/22 02:38:32;;;;;;;6.90;1.48;;;17.60;51.00;;;;;;6214744;23;20010;-78
2021/04/22 02:40:57;;;;;;;3.67;1.17;;;17.60;51.00;;;;;;6214324;23;20047;-73
2021/04/22 02:43:23;;;;;;;5.40;1.23;;;17.60;50.90;;;;;;6214172;23;20429;-74
2021/04/22 02:45:52;;;;;;;5.40;1.33;;;17.60;50.90;;;;;;6213526;23;20040;-72
2021/04/22 02:48:18;;;;;;;4.10;1.23;;;17.60;50.90;;;;;;6214317;23;20463;-72
2021/04/22 02:50:50;;;;;;;6.82;1.52;;;17.50;50.80;;;;;;6214298;23;20083;-74
2021/04/22 02:53:16;;;;;;;2.83;0.95;;;17.60;50.90;;;;;;6214690;23;20001;-77
2021/04/22 02:55:43;;;;;;;4.65;1.58;;;17.50;50.90;;;;;;6213824;23;20008;-76
2021/04/22 02:58:14;;;;;;;4.13;1.23;;;17.50;50.80;;;;;;6214526;23;20024;-76
2021/04/22 03:00:43;;;;;;;6.15;1.42;;;17.50;50.80;;;;;;6212682;23;20001;-77
2021/04/22 03:03:09;;;;;;;3.60;1.00;;;17.50;50.80;;;;;;6213954;23;20467;-77
2021/04/22 03:05:35;;;;;;;5.28;1.38;;;17.50;50.90;;;;;;6215218;23;20055;-77
2021/04/22 03:08:01;;;;;;;5.07;0.98;;;17.40;50.80;;;;;;6212696;23;20074;-78
2021/04/22 03:10:28;;;;;;;4.97;1.20;;;17.40;50.80;;;;;;6213864;23;20484;-77
2021/04/22 03:12:54;;;;;;;4.20;1.30;;;17.40;50.80;;;;;;6212811;23;20337;-71
2021/04/22 03:15:21;;;;;;;3.95;1.15;;;17.40;50.80;;;;;;6214643;23;20062;-74
2021/04/22 03:17:47;;;;;;;4.47;1.45;;;17.40;50.80;;;;;;6213373;23;20005;-77
2021/04/22 03:20:14;;;;;;;3.92;1.55;;;17.40;50.90;;;;;;6214004;23;20012;-76
2021/04/22 03:22:40;;;;;;;7.18;2.05;;;17.40;50.80;;;;;;6213937;23;19997;-71
2021/04/22 03:25:10;;;;;;;4.47;1.85;;;17.40;50.80;;;;;;6214658;23;20000;-76
2021/04/22 03:27:36;;;;;;;5.40;1.85;;;17.40;50.80;;;;;;6214045;23;20005;-77
2021/04/22 03:30:04;;;;;;;6.32;1.92;;;17.40;50.80;;;;;;6214487;23;20032;-77
2021/04/22 03:32:30;;;;;;;3.95;1.40;;;17.40;50.80;;;;;;6211081;23;20379;-75
2021/04/22 03:34:55;;;;;;;4.55;1.63;;;17.30;50.70;;;;;;6210071;23;20027;-76
2021/04/22 03:37:21;;;;;;;4.65;1.23;;;17.30;50.70;;;;;;6214219;23;20005;-76
2021/04/22 03:39:47;;;;;;;3.58;1.02;;;17.30;50.70;;;;;;6213555;23;20016;-75
2021/04/22 03:42:16;;;;;;;4.28;1.60;;;17.30;50.70;;;;;;6213971;23;20004;-75
2021/04/22 03:44:42;;;;;;;3.95;1.52;;;17.30;50.70;;;;;;6213794;23;20464;-69
2021/04/22 03:47:10;;;;;;;6.45;1.33;;;17.30;50.70;;;;;;6213953;23;20083;-76
2021/04/22 03:49:35;;;;;;;5.18;1.35;;;17.30;50.70;;;;;;6214228;23;20055;-75
2021/04/22 03:52:01;;;;;;;4.53;1.05;;;17.30;50.70;;;;;;6213774;23;20008;-78
2021/04/22 03:54:27;;;;;;;4.72;1.30;;;17.30;50.70;;;;;;6212257;23;20015;-78
2021/04/22 03:56:52;;;;;;;3.78;1.42;;;17.30;51.30;;;;;;6213432;23;19996;-78
2021/04/22 03:59:18;;;;;;;5.85;1.77;;;17.20;50.60;;;;;;6212599;23;20012;-78
2021/04/22 04:01:43;;;;;;;5.13;1.70;;;17.30;50.70;;;;;;6213344;23;20019;-78
2021/04/22 04:04:09;;;;;;;4.53;1.25;;;17.20;51.00;;;;;;6213723;23;20456;-78
2021/04/22 04:06:35;;;;;;;2.58;1.00;;;17.20;50.60;;;;;;6213218;23;20051;-78
2021/04/22 04:09:00;;;;;;;5.03;1.60;;;17.20;50.60;;;;;;6213940;23;20001;-77
2021/04/22 04:11:26;;;;;;;5.00;1.15;;;17.20;50.60;;;;;;6213416;23;20005;-77
2021/04/22 04:13:52;;;;;;;5.53;1.40;;;17.20;50.60;;;;;;6214112;23;20042;-77
2021/04/22 04:16:17;;;;;;;5.65;1.45;;;17.20;50.60;;;;;;6213075;23;20003;-76
2021/04/22 04:18:43;;;;;;;5.38;1.35;;;17.20;50.60;;;;;;6213547;23;20431;-74
2021/04/22 04:21:09;;;;;;;4.82;1.40;;;17.20;50.60;;;;;;6213884;23;20030;-77
2021/04/22 04:23:34;;;;;;;5.03;1.35;;;17.20;50.60;;;;;;6213782;23;20000;-77
2021/04/22 04:26:00;;;;;;;10.20;2.38;;;17.20;50.60;;;;;;6213289;23;20084;-73
2021/04/22 04:28:25;;;;;;;6.20;1.60;;;17.10;50.50;;;;;;6213995;23;19997;-77
2021/04/22 04:30:51;;;;;;;4.85;1.83;;;17.10;50.50;;;;;;6213642;23;20444;-76
2021/04/22 04:33:17;;;;;;;9.52;1.60;;;17.10;50.50;;;;;;6213801;23;20068;-75
2021/04/22 04:35:42;;;;;;;6.32;1.30;;;17.10;50.50;;;;;;6213835;23;20364;-72
2021/04/22 04:38:09;;;;;;;6.13;1.77;;;17.10;50.50;;;;;;6213098;23;20368;-76
2021/04/22 04:40:34;;;;;;;5.47;1.95;;;17.10;50.50;;;;;;6212407;23;20017;-76
2021/04/22 04:43:01;;;;;;;4.85;1.35;;;17.10;50.50;;;;;;6213407;23;20021;-76
2021/04/22 04:45:27;;;;;;;5.22;1.65;;;17.10;50.50;;;;;;6212455;23;20077;-77
2021/04/22 04:47:53;;;;;;;7.03;1.60;;;17.10;50.50;;;;;;6213367;23;20324;-77
2021/04/22 04:50:19;;;;;;;4.45;2.00;;;17.10;50.60;;;;;;6213428;23;20080;-75
2021/04/22 04:52:45;;;;;;;4.47;1.52;;;17.10;50.40;;;;;;6213515;23;20054;-75
2021/04/22 04:55:12;;;;;;;5.95;1.33;;;17.00;50.40;;;;;;6214428;23;20075;-76
2021/04/22 04:57:38;;;;;;;4.10;1.58;;;17.00;50.40;;;;;;6212466;23;20068;-77
2021/04/22 05:00:08;;;;;;;5.32;1.63;;;17.00;50.30;;;;;;6213068;23;20063;-76
2021/04/22 05:02:34;;;;;;;4.88;1.60;;;17.00;50.30;;;;;;6213012;23;19997;-78
2021/04/22 05:05:00;;;;;;;6.43;2.17;;;17.00;50.90;;;;;;6212143;23;20059;-75
2021/04/22 05:07:26;;;;;;;5.60;1.73;;;17.00;50.30;;;;;;6212999;23;20484;-75
2021/04/22 05:09:52;;;;;;;8.68;2.15;;;17.00;50.30;;;;;;6213759;23;20005;-75
2021/04/22 05:12:17;;;;;;;6.32;1.88;;;17.00;50.30;;;;;;6212782;23;20047;-74
2021/04/22 05:14:43;;;;;;;4.63;1.42;;;17.00;50.30;;;;;;6214006;23;20004;-74
2021/04/22 05:17:09;;;;;;;5.30;1.42;;;17.00;50.30;;;;;;6213528;23;20004;-76
2021/04/22 05:19:34;;;;;;;5.85;1.77;;;17.00;50.30;;;;;;6215197;23;20008;-78
2021/04/22 05:22:00;;;;;;;6.60;1.63;;;17.00;50.20;;;;;;6215056;23;20068;-75
2021/04/22 05:24:26;;;;;;;8.57;2.20;;;16.90;50.20;;;;;;6215050;23;20438;-74
2021/04/22 05:26:51;;;;;;;5.75;2.33;;;16.90;50.20;;;;;;6214335;23;20055;-74
2021/04/22 05:29:17;;;;;;;5.88;1.60;;;16.90;50.30;;;;;;6215286;23;20007;-74
2021/04/22 05:31:43;;;;;;;6.80;1.85;;;16.90;50.20;;;;;;6215318;23;20337;-74
2021/04/22 05:34:09;;;;;;;6.35;2.08;;;16.90;50.20;;;;;;6215608;23;20079;-74
2021/04/22 05:36:34;;;;;;;4.97;1.70;;;16.90;50.30;;;;;;6215326;23;20447;-74
2021/04/22 05:39:00;;;;;;;5.43;1.38;;;16.90;50.30;;;;;;6215155;23;20040;-75
2021/04/22 05:41:26;;;;;;;4.72;1.70;;;16.90;50.30;;;;;;6215390;23;19997;-77
2021/04/22 05:43:51;;;;;;;4.07;1.30;;;16.90;50.30;;;;;;6215703;23;20024;-77
2021/04/22 05:46:17;;;;;;;6.53;1.80;;;16.90;50.30;;;;;;6213518;23;20012;-75
2021/04/22 05:48:43;;;;;;;5.40;1.42;;;16.90;50.30;;;;;;6214038;23;20017;-74
2021/04/22 05:51:09;;;;;;;5.95;1.52;;;16.90;50.30;;;;;;6215052;23;20444;-74
2021/04/22 05:53:35;;;;;;;7.82;1.70;;;16.80;50.30;;;;;;6215448;23;19997;-73
2021/04/22 05:56:00;;;;;;;7.53;2.42;;;16.80;50.30;;;;;;6215138;23;20004;-76
2021/04/22 05:58:26;;;;;;;8.82;1.80;;;16.80;50.30;;;;;;6214681;23;20032;-78
2021/04/22 06:00:51;;;;;;;8.40;2.00;;;16.80;50.40;;;;;;6214984;23;20009;-74
2021/04/22 06:03:18;;;;;;;5.88;1.90;;;16.80;50.40;;;;;;6215334;23;20000;-74
2021/04/22 06:05:43;;;;;;;4.60;1.52;;;16.80;50.50;;;;;;6213601;23;20005;-75
2021/04/22 06:08:09;;;;;;;6.80;2.10;;;16.80;50.50;;;;;;6215259;23;20395;-76
2021/04/22 06:10:35;;;;;;;5.18;1.40;;;16.80;50.50;;;;;;6214655;23;20028;-77
2021/04/22 06:13:00;;;;;;;5.95;1.92;;;16.80;50.60;;;;;;6214229;23;20008;-79
2021/04/22 06:15:26;;;;;;;8.10;1.80;;;16.90;50.80;;;;;;6213958;23;20008;-74
2021/04/22 06:17:51;;;;;;;7.28;1.92;;;16.90;50.80;;;;;;6212934;23;20008;-74
2021/04/22 06:20:23;;;;;;;6.40;1.95;;;17.00;50.70;;;;;;6214725;23;20012;-78
2021/04/22 06:22:50;;;;;;;8.88;2.10;;;17.00;50.70;;;;;;6215288;23;19997;-78
2021/04/22 06:25:18;;;;;;;5.53;1.95;;;17.10;50.60;;;;;;6214974;23;20032;-78
2021/04/22 06:27:44;;;;;;;7.35;1.88;;;17.20;50.50;;;;;;6218254;23;20429;-77
2021/04/22 06:30:11;;;;;;;9.32;1.90;;;17.30;50.80;;;;;;6215991;23;20024;-83
2021/04/22 06:32:36;;;;;;;8.13;1.95;;;17.40;50.70;;;;;;6214352;23;20000;-80
2021/04/22 06:35:04;;;;;;;6.43;2.00;;;17.50;50.50;;;;;;6215114;23;20012;-78
2021/04/22 06:37:30;;;;;;;9.63;2.22;;;17.70;50.40;;;;;;6214934;23;20008;-76
2021/04/22 06:39:56;;;;;;;10.93;3.38;;;17.80;50.40;;;;;;6214674;23;20062;-77
2021/04/22 06:42:21;;;;;;;8.63;2.03;;;17.90;50.70;;;;;;6214548;23;20074;-77
2021/04/22 06:44:47;;;;;;;4.97;2.08;;;18.00;50.70;;;;;;6213312;23;20005;-76
2021/04/22 06:47:13;;;;;;;8.32;2.40;;;18.10;50.80;;;;;;6214070;23;20079;-73
2021/04/22 06:49:40;;;;;;;7.32;2.05;;;18.30;50.90;;;;;;6214621;23;20015;-75
2021/04/22 06:52:06;;;;;;;11.98;2.08;;;18.40;50.90;;;;;;6214622;23;19997;-76
2021/04/22 06:54:32;;;;;;;10.63;2.10;;;18.60;50.50;;;;;;6214861;23;20008;-75
2021/04/22 06:56:57;;;;;;;9.50;2.38;;;18.60;50.10;;;;;;6214547;23;20368;-72
2021/04/22 06:59:23;;;;;;;12.05;2.55;;;18.70;50.00;;;;;;6214483;23;20012;-72
2021/04/22 07:01:49;;;;;;;7.50;2.70;;;18.80;49.80;;;;;;6213128;23;20004;-74
2021/04/22 07:04:15;;;;;;;8.90;2.40;;;18.80;49.40;;;;;;6214599;23;20344;-77
2021/04/22 07:06:40;;;;;;;12.50;2.30;;;18.80;49.60;;;;;;6214457;23;20004;-77
2021/04/22 07:09:06;;;;;;;7.55;1.95;;;18.90;49.50;;;;;;6214783;23;20005;-74
2021/04/22 07:11:32;;;;;;;10.38;2.20;;;19.00;49.30;;;;;;6212636;23;20345;-75
2021/04/22 07:13:57;;;;;;;8.25;2.30;;;19.00;49.20;;;;;;6214444;23;20500;-75
2021/04/22 07:16:23;;;;;;;5.63;1.95;;;19.10;49.20;;;;;;6212100;23;20013;-74
2021/04/22 07:18:52;;;;;;;7.78;2.38;;;19.10;49.10;;;;;;6214426;23;20088;-73
2021/04/22 07:21:18;;;;;;;9.93;1.90;;;19.10;49.10;;;;;;6213132;23;20445;-75
2021/04/22 07:23:44;;;;;;;6.88;2.20;;;19.10;49.00;;;;;;6214101;23;20005;-74
2021/04/22 07:26:09;;;;;;;5.55;2.25;;;19.10;48.90;;;;;;6212483;23;20058;-76
2021/04/22 07:28:37;;;;;;;6.72;1.75;;;19.10;48.80;;;;;;6213926;23;19997;-74
2021/04/22 07:31:03;;;;;;;6.95;1.80;;;19.10;48.90;;;;;;6213909;23;20359;-75
2021/04/22 07:33:28;;;;;;;8.05;1.90;;;19.20;48.90;;;;;;6214399;23;20012;-76
2021/04/22 07:35:54;;;;;;;10.18;1.70;;;19.20;48.90;;;;;;6213917;23;20001;-74
2021/04/22 07:38:20;;;;;;;9.23;2.20;;;19.10;48.80;;;;;;6214399;23;20011;-75
2021/04/22 07:40:46;;;;;;;9.18;1.83;;;19.10;48.80;;;;;;6213834;23;20009;-75
2021/04/22 07:43:13;;;;;;;6.97;2.20;;;19.10;48.80;;;;;;6214247;23;20441;-76
2021/04/22 07:45:42;;;;;;;9.95;2.78;;;19.10;48.80;;;;;;6213994;23;20012;-74
2021/04/22 07:48:09;;;;;;;7.25;2.10;;;19.10;48.80;;;;;;6214342;23;20071;-73
2021/04/22 07:50:35;;;;;;;9.80;2.97;;;19.10;48.70;;;;;;6212550;23;20040;-75
2021/04/22 07:53:05;;;;;;;7.43;1.92;;;19.10;48.60;;;;;;6214213;23;20345;-75
2021/04/22 07:55:33;;;;;;;7.88;2.20;;;19.00;48.70;;;;;;6213985;23;20043;-75
2021/04/22 07:58:00;;;;;;;5.78;2.00;;;19.10;48.80;;;;;;6213888;23;20005;-74
2021/04/22 08:00:27;;;;;;;6.28;1.80;;;19.00;48.70;;;;;;6214150;23;20083;-76
2021/04/22 08:02:53;;;;;;;5.75;1.95;;;19.00;48.80;;;;;;6214548;23;20087;-74
2021/04/22 08:05:22;;;;;;;5.55;1.77;;;19.00;48.80;;;;;;6213462;23;20008;-74
2021/04/22 08:07:48;;;;;;;6.53;2.17;;;19.00;48.80;;;;;;6213821;23;20024;-75
2021/04/22 08:10:20;;;;;;;6.47;1.60;;;19.00;48.80;;;;;;6213928;23;20321;-74
2021/04/22 08:12:47;;;;;;;6.20;1.40;;;18.90;48.70;;;;;;6213941;23;20560;-74
2021/04/22 08:15:14;;;;;;;7.72;1.75;;;18.90;48.80;;;;;;6214090;23;20004;-73
2021/04/22 08:17:40;;;;;;;5.13;1.77;;;18.90;48.80;;;;;;6213343;23;20004;-75
2021/04/22 08:20:18;;;;;;;9.60;2.10;;;18.90;48.80;;;;;;6212215;23;20017;-73
2021/04/22 08:22:45;;;;;;;5.88;1.70;;;18.90;48.90;;;;;;6213964;23;20027;-73
2021/04/22 08:25:19;;;;;;;5.53;1.75;;;18.90;48.90;;;;;;6213931;23;20059;-76
2021/04/22 08:27:46;;;;;;;5.18;2.00;;;18.80;48.80;;;;;;6213722;23;20000;-74
2021/04/22 08:30:13;;;;;;;6.93;2.10;;;18.80;48.90;;;;;;6213734;23;20091;-75
2021/04/22 08:32:39;;;;;;;5.95;1.90;;;18.80;48.90;;;;;;6212044;23;20025;-76
2021/04/22 08:35:05;;;;;;;8.23;1.77;;;18.80;48.90;;;;;;6213996;23;20012;-77
2021/04/22 08:37:34;;;;;;;5.97;1.88;;;18.80;49.00;;;;;;6213561;23;20005;-74
2021/04/22 08:40:00;;;;;;;4.90;1.63;;;18.80;49.00;;;;;;6213413;23;20012;-74
2021/04/22 08:42:29;;;;;;;6.43;1.67;;;18.80;49.00;;;;;;6214198;23;20092;-74
2021/04/22 08:44:59;;;;;;;7.10;1.95;;;18.70;49.00;;;;;;6213733;23;20008;-70
2021/04/22 08:47:26;;;;;;;4.05;1.60;;;18.70;49.10;;;;;;6212013;23;20009;-74
2021/04/22 08:49:51;;;;;;;5.90;1.90;;;18.70;49.00;;;;;;6213570;23;20341;-75
2021/04/22 08:52:18;;;;;;;3.38;1.60;;;18.70;48.90;;;;;;6214038;23;20009;-74
2021/04/22 08:54:43;;;;;;;6.45;2.00;;;18.70;48.90;;;;;;6213974;23;20005;-72
2021/04/22 08:57:09;;;;;;;6.50;1.95;;;18.70;49.00;;;;;;6213797;23;20332;-75
2021/04/22 08:59:35;;;;;;;4.68;1.23;;;18.70;49.00;;;;;;6213603;23;20412;-75
2021/04/22 09:02:00;;;;;;;5.07;2.10;;;18.70;49.50;;;;;;6213646;23;20005;-75
2021/04/22 09:04:26;;;;;;;5.78;1.63;;;18.70;49.00;;;;;;6213958;23;20388;-75
2021/04/22 09:06:52;;;;;;;4.38;1.55;;;18.70;49.00;;;;;;6213514;23;20429;-74
2021/04/22 09:09:17;;;;;;;4.55;1.55;;;18.60;49.10;;;;;;6213591;23;20071;-72
2021/04/22 09:11:47;;;;;;;6.30;2.00;;;18.70;48.90;;;;;;6213699;23;20071;-74
2021/04/22 09:14:15;;;;;;;6.97;1.70;;;18.70;49.00;;;;;;6213549;23;20076;-75
2021/04/22 09:16:44;;;;;;;7.80;2.13;;;18.70;48.90;;;;;;6187389;23;20009;-75
2021/04/22 09:19:42;;;;;;;5.70;2.20;;;18.70;48.90;;;;;;6214008;23;20009;-73
2021/04/22 09:22:07;;;;;;;9.43;1.88;;;18.60;49.00;;;;;;6212375;23;20095;-75
2021/04/22 09:24:33;;;;;;;6.13;1.90;;;18.60;49.00;;;;;;6213642;23;20028;-76
2021/04/22 09:27:04;;;;;;;5.05;1.60;;;18.60;48.90;;;;;;6213722;23;20069;-76
2021/04/22 09:29:39;;;;;;;6.60;1.92;;;18.60;49.00;;;;;;6211984;23;20422;-73
2021/04/22 09:32:11;;;;;;;6.47;1.90;;;18.60;49.10;;;;;;6213659;23;20001;-73
2021/04/22 09:34:37;;;;;;;6.13;1.90;;;18.60;49.00;;;;;;6212594;23;20008;-73
2021/04/22 09:37:09;;;;;;;5.10;1.95;;;18.60;49.10;;;;;;6211589;23;20515;-70
2021/04/22 09:39:35;;;;;;;6.03;1.80;;;18.60;49.10;;;;;;6213676;23;20075;-73
2021/04/22 09:42:07;;;;;;;4.47;1.38;;;18.60;49.10;;;;;;6213275;23;20441;-74
2021/04/22 09:44:34;;;;;;;8.50;1.80;;;18.60;49.70;;;;;;6213277;23;20450;-75
2021/04/22 09:47:04;;;;;;;4.72;1.55;;;18.50;49.00;;;;;;6213804;23;20013;-73
2021/04/22 09:49:29;;;;;;;6.82;2.03;;;18.60;49.20;;;;;;6213731;23;20010;-74
2021/04/22 09:52:05;;;;;;;4.40;1.52;;;18.60;49.10;;;;;;6213494;23;20440;-75
2021/04/22 09:54:30;;;;;;;6.25;1.50;;;18.60;49.70;;;;;;6213796;23;20067;-75
2021/04/22 09:56:57;;;;;;;5.75;1.83;;;18.60;49.10;;;;;;6211930;23;20039;-71
2021/04/22 09:59:28;;;;;;;5.57;1.70;;;18.70;49.00;;;;;;6213188;23;20471;-74
2021/04/22 10:02:06;;;;;;;4.10;1.75;;;18.70;49.00;;;;;;6213479;23;20046;-75
2021/04/22 10:04:36;;;;;;;4.10;1.60;;;18.70;49.00;;;;;;6215436;23;20027;-77
2021/04/22 10:07:25;;;;;;;5.03;1.73;;;18.70;49.00;;;;;;6213801;23;20026;-73
2021/04/22 10:09:53;;;;;;;6.75;2.03;;;18.70;49.70;;;;;;6215446;23;20082;-78
2021/04/22 10:12:32;;;;;;;4.13;1.58;;;18.60;49.00;;;;;;6213372;23;20000;-79
2021/04/22 10:15:22;;;;;;;4.75;1.92;;;18.70;49.10;;;;;;6215215;23;20062;-73
2021/04/22 10:18:00;;;;;;;5.88;1.73;;;18.70;49.20;;;;;;6215721;23;20051;-71
2021/04/22 10:20:29;;;;;;;7.35;2.33;;;18.70;49.20;;;;;;6213137;23;20384;-73
2021/04/22 10:22:55;;;;;;;5.82;1.70;;;18.70;49.00;;;;;;6215022;23;19997;-72
2021/04/22 10:25:23;;;;;;;5.15;1.67;;;18.70;48.70;;;;;;6215111;23;20004;-76
2021/04/22 10:27:49;;;;;;;7.03;1.83;;;18.70;48.80;;;;;;6214880;23;20024;-73
2021/04/22 10:30:19;;;;;;;5.15;2.03;;;18.80;48.60;;;;;;6214852;23;20004;-75
2021/04/22 10:32:49;;;;;;;5.75;1.98;;;18.80;48.70;;;;;;6215547;23;20007;-79
2021/04/22 10:35:24;;;;;;;6.20;1.50;;;18.80;48.80;;;;;;6215211;23;20005;-78
2021/04/22 10:38:03;;;;;;;6.37;1.83;;;18.80;48.90;;;;;;6214923;23;20499;-76
2021/04/22 10:40:43;;;;;;;4.93;2.30;;;19.00;49.00;;;;;;6214966;23;20252;-77
2021/04/22 10:43:19;;;;;;;4.68;1.90;;;19.10;48.90;;;;;;6212871;23;20064;-77
2021/04/22 10:45:45;;;;;;;5.22;1.60;;;19.20;48.80;;;;;;6215048;23;20058;-71
2021/04/22 10:48:11;;;;;;;9.00;3.03;;;19.30;48.70;;;;;;6214010;23;20426;-70
2021/04/22 10:50:40;;;;;;;4.40;1.50;;;19.50;48.60;;;;;;6214673;23;20012;-71
2021/04/22 10:53:10;;;;;;;5.55;2.15;;;19.60;48.60;;;;;;6214638;23;20005;-72
2021/04/22 10:55:37;;;;;;;4.10;1.67;;;19.60;48.40;;;;;;6214841;23;20047;-71
2021/04/22 10:58:13;;;;;;;4.78;1.73;;;19.70;48.50;;;;;;6214289;23;20009;-70
2021/04/22 11:00:47;;;;;;;5.57;1.92;;;19.80;48.50;;;;;;6214558;23;20039;-70
2021/04/22 11:03:33;;;;;;;7.68;2.35;;;19.90;48.30;;;;;;6214723;23;20085;-70
2021/04/22 11:06:03;;;;;;;5.63;2.35;;;19.90;48.30;;;;;;6219919;23;20011;-70
2021/04/22 11:08:35;;;;;;;7.88;2.28;;;20.10;48.30;;;;;;6217166;23;20430;-71
2021/04/22 11:11:02;;;;;;;10.98;2.17;;;20.20;48.20;;;;;;6214804;23;20001;-72
2021/04/22 11:13:36;;;;;;;6.95;2.20;;;20.30;49.20;;;;;;6216365;23;20001;-72
2021/04/22 11:16:04;;;;;;;5.60;1.98;;;20.50;50.10;;;;;;6215999;23;20005;-70
2021/04/22 11:18:49;;;;;;;8.05;1.75;;;20.80;50.30;;;;;;6214647;23;20004;-72
2021/04/22 11:21:27;;;;;;;6.15;1.73;;;21.00;49.80;;;;;;6222507;23;20031;-76
2021/04/22 11:23:55;;;;;;;6.03;2.65;;;21.20;49.80;;;;;;6214393;23;20075;-77
2021/04/22 11:26:31;;;;;;;4.60;1.88;;;21.40;49.30;;;;;;6214349;23;19997;-78
2021/04/22 11:29:19;;;;;;;6.38;1.90;;;21.60;49.30;;;;;;6214094;23;20047;-77
2021/04/22 11:32:06;;;;;;;5.03;1.67;;;21.80;49.50;;;;;;6213844;23;20001;-70
2021/04/22 11:34:34;;;;;;;5.80;1.73;;;22.00;49.90;;;;;;6212221;23;20071;-70
2021/04/22 11:37:11;;;;;;;5.82;1.70;;;22.20;49.90;;;;;;6214168;23;20421;-76
2021/04/22 11:40:11;;;;;;;4.20;1.63;;;22.30;49.70;;;;;;6212836;23;20135;-72
2021/04/22 11:43:12;;;;;;;5.40;1.70;;;22.40;49.40;;;;;;6206475;23;20000;-74
2021/04/22 11:45:53;;;;;;;4.25;1.80;;;22.60;48.90;;;;;;6201341;23;20444;-75
2021/04/22 11:48:20;;;;;;;5.53;1.48;;;22.80;48.50;;;;;;6215041;23;20004;-79
2021/04/22 11:50:57;;;;;;;6.20;2.78;;;22.80;48.20;;;;;;6214326;23;20079;-78
2021/04/22 11:53:32;;;;;;;5.95;1.70;;;22.90;47.80;;;;;;6214180;23;20009;-78
2021/04/22 11:55:59;;;;;;;5.70;1.77;;;23.00;47.20;;;;;;6214469;23;20696;-77
2021/04/22 11:58:25;;;;;;;5.20;1.55;;;23.20;46.80;;;;;;6214092;23;20016;-73
2021/04/22 12:01:00;;;;;;;6.65;2.20;;;23.00;45.90;;;;;;6212356;23;20360;-74
2021/04/22 12:03:39;;;;;;;7.55;2.20;;;23.00;45.90;;;;;;6213997;23;20007;-76
2021/04/22 12:06:07;;;;;;;5.63;1.88;;;22.90;45.60;;;;;;6212973;23;20108;-77
2021/04/22 12:08:49;;;;;;;4.90;1.80;;;22.90;45.70;;;;;;6214364;23;20005;-76
2021/04/22 12:11:23;;;;;;;7.05;1.50;;;22.70;45.90;;;;;;6212241;23;20008;-76
2021/04/22 12:13:49;;;;;;;5.00;1.83;;;22.70;46.00;;;;;;6213767;23;20006;-75
2021/04/22 12:16:15;;;;;;;6.88;2.00;;;22.70;46.00;;;;;;6213872;23;20043;-77
2021/04/22 12:18:46;;;;;;;5.35;1.70;;;22.70;45.80;;;;;;6213545;23;20441;-73
2021/04/22 12:21:18;;;;;;;5.25;1.85;;;22.70;45.70;;;;;;6212224;23;20440;-74
2021/04/22 12:23:56;;;;;;;3.55;1.67;;;22.80;45.70;;;;;;6213564;23;20008;-76
2021/04/22 12:26:24;;;;;;;4.65;1.48;;;22.80;45.60;;;;;;6213621;23;20000;-76
2021/04/22 12:28:54;;;;;;;6.50;2.00;;;22.80;45.60;;;;;;6213579;23;20448;-76
2021/04/22 12:31:40;;;;;;;5.30;1.70;;;22.80;45.50;;;;;;6214054;23;20039;-73
2021/04/22 12:34:13;;;;;;;4.22;1.80;;;22.80;45.40;;;;;;6212224;23;20071;-74
2021/04/22 12:36:51;;;;;;;4.43;1.48;;;22.80;45.50;;;;;;6214194;23;20000;-74
2021/04/22 12:39:27;;;;;;;5.70;1.80;;;22.80;45.40;;;;;;6213290;23;20000;-76
2021/04/22 12:42:26;;;;;;;3.05;1.33;;;22.90;45.50;;;;;;6214204;23;20013;-76
2021/04/22 12:45:08;;;;;;;6.32;2.20;;;22.80;45.40;;;;;;6213023;23;20013;-76
2021/04/22 12:48:01;;;;;;;6.38;1.77;;;22.80;43.90;;;;;;6212465;23;20429;-74
2021/04/22 12:50:26;;;;;;;5.57;1.85;;;22.60;43.50;;;;;;6213844;23;20013;-74
2021/04/22 12:53:17;;;;;;;8.23;2.42;;;22.60;44.20;;;;;;6213532;23;20008;-74